createdAt,value
2023-01-17T00:02:09.010Z,0.13
2023-01-17T00:04:54.798Z,0.30
2023-01-17T00:07:42.007Z,0.30
2023-01-17T00:10:12.181Z,0.20
2023-01-17T00:12:46.467Z,0.30
2023-01-17T00:15:14.267Z,0.30
2023-01-17T00:17:42.234Z,0.23
2023-01-17T00:20:46.817Z,0.30
2023-01-17T00:23:33.615Z,0.10
2023-01-17T00:26:04.571Z,0.00
2023-01-17T00:28:34.853Z,0.13
2023-01-17T00:31:01.918Z,0.30
2023-01-17T00:33:29.061Z,0.13
2023-01-17T00:35:57.441Z,0.10
2023-01-17T00:38:26.111Z,0.40
2023-01-17T00:40:53.132Z,0.63
2023-01-17T00:43:40.835Z,0.50
2023-01-17T00:46:29.571Z,0.40
2023-01-17T00:49:14.672Z,0.53
2023-01-17T00:52:00.059Z,0.63
2023-01-17T00:54:45.214Z,0.37
2023-01-17T00:57:30.917Z,0.27
2023-01-17T01:00:16.020Z,0.53
2023-01-17T01:03:03.018Z,0.60
2023-01-17T01:05:48.578Z,0.40
2023-01-17T01:08:41.664Z,0.30
2023-01-17T01:11:28.733Z,0.40
2023-01-17T01:14:14.886Z,0.30
2023-01-17T01:17:00.634Z,0.60
2023-01-17T01:19:47.376Z,0.30
2023-01-17T01:22:32.592Z,0.37
2023-01-17T01:25:18.079Z,0.00
2023-01-17T01:28:03.220Z,0.50
2023-01-17T01:30:48.412Z,0.20
2023-01-17T01:33:18.661Z,0.10
2023-01-17T01:35:49.628Z,0.10
2023-01-17T01:38:17.686Z,0.10
2023-01-17T01:40:47.773Z,0.30
2023-01-17T01:43:17.698Z,0.10
2023-01-17T01:45:49.703Z,0.30
2023-01-17T01:48:34.327Z,0.20
2023-01-17T01:51:07.412Z,0.20
2023-01-17T01:53:38.475Z,0.30
2023-01-17T01:56:10.700Z,0.20
2023-01-17T01:58:41.139Z,0.10
2023-01-17T02:01:09.764Z,0.27
2023-01-17T02:03:38.970Z,0.30
2023-01-17T02:06:35.343Z,0.20
2023-01-17T02:09:06.817Z,0.10
2023-01-17T02:11:35.742Z,0.07
2023-01-17T02:14:03.485Z,0.20
2023-01-17T02:16:46.194Z,0.57
2023-01-17T02:19:36.093Z,0.40
2023-01-17T02:22:21.603Z,0.40
2023-01-17T02:25:12.967Z,0.40
2023-01-17T02:27:53.439Z,0.10
2023-01-17T02:30:34.056Z,0.20
2023-01-17T02:33:15.655Z,0.30
2023-01-17T02:35:50.229Z,0.40
2023-01-17T02:38:31.254Z,0.20
2023-01-17T02:41:05.295Z,0.20
2023-01-17T02:43:35.925Z,0.20
2023-01-17T02:46:05.192Z,0.60
2023-01-17T02:48:36.904Z,0.40
2023-01-17T02:51:42.747Z,0.30
2023-01-17T02:54:29.011Z,0.20
2023-01-17T02:57:10.103Z,0.30
2023-01-17T02:59:47.161Z,0.40
2023-01-17T03:02:26.815Z,0.43
2023-01-17T03:05:01.062Z,0.20
2023-01-17T03:07:31.470Z,0.20
2023-01-17T03:10:01.836Z,0.20
2023-01-17T03:12:30.560Z,0.80
2023-01-17T03:14:58.469Z,0.40
2023-01-17T03:17:31.739Z,0.43
2023-01-17T03:19:59.716Z,0.20
2023-01-17T03:22:27.496Z,0.30
2023-01-17T03:24:55.265Z,0.50
2023-01-17T03:27:23.086Z,0.40
2023-01-17T03:29:50.799Z,0.20
2023-01-17T03:32:18.584Z,0.20
2023-01-17T03:34:47.731Z,0.20
2023-01-17T03:37:15.673Z,0.37
2023-01-17T03:39:43.382Z,0.40
2023-01-17T03:42:11.241Z,0.33
2023-01-17T03:44:39.039Z,0.30
2023-01-17T03:47:07.095Z,0.20
2023-01-17T03:49:34.768Z,0.03
2023-01-17T03:52:03.974Z,0.23
2023-01-17T03:54:31.795Z,0.10
2023-01-17T03:56:59.516Z,0.47
2023-01-17T03:59:27.465Z,0.47
2023-01-17T04:01:55.275Z,0.30
2023-01-17T04:04:23.438Z,0.20
2023-01-17T04:06:51.172Z,0.30
2023-01-17T04:09:20.283Z,0.50
2023-01-17T04:11:50.865Z,0.33
2023-01-17T04:14:18.870Z,0.43
2023-01-17T04:16:46.709Z,0.20
2023-01-17T04:19:14.943Z,0.67
2023-01-17T04:21:42.659Z,0.47
2023-01-17T04:24:10.407Z,0.70
2023-01-17T04:26:39.581Z,0.60
2023-01-17T04:29:07.271Z,0.40
2023-01-17T04:31:35.031Z,0.60
2023-01-17T04:34:02.807Z,0.40
2023-01-17T04:36:30.603Z,0.80
2023-01-17T04:38:58.369Z,0.57
2023-01-17T04:41:26.071Z,0.40
2023-01-17T04:43:57.488Z,0.70
2023-01-17T04:46:25.313Z,0.40
2023-01-17T04:48:53.061Z,0.30
2023-01-17T04:51:20.807Z,0.43
2023-01-17T04:53:48.574Z,0.40
2023-01-17T04:56:16.270Z,0.37
2023-01-17T04:58:44.066Z,0.60
2023-01-17T05:01:13.394Z,0.70
2023-01-17T05:03:41.205Z,0.40
2023-01-17T05:06:09.054Z,0.53
2023-01-17T05:08:36.850Z,0.53
2023-01-17T05:11:04.650Z,0.43
2023-01-17T05:13:32.506Z,0.50
2023-01-17T05:16:00.439Z,0.57
2023-01-17T05:18:29.543Z,0.40
2023-01-17T05:21:02.758Z,0.60
2023-01-17T05:23:30.680Z,0.40
2023-01-17T05:25:58.454Z,0.40
2023-01-17T05:28:26.254Z,0.50
2023-01-17T05:30:54.113Z,0.60
2023-01-17T05:33:21.911Z,0.23
2023-01-17T05:35:51.193Z,0.70
2023-01-17T05:38:22.577Z,0.30
2023-01-17T05:40:50.935Z,0.20
2023-01-17T05:43:19.807Z,0.40
2023-01-17T05:45:49.462Z,0.40
2023-01-17T05:48:17.336Z,0.23
2023-01-17T05:50:45.415Z,0.30
2023-01-17T05:53:16.297Z,0.47
2023-01-17T05:55:44.271Z,0.23
2023-01-17T05:58:16.336Z,0.70
2023-01-17T06:00:44.523Z,0.93
2023-01-17T06:03:12.794Z,0.40
2023-01-17T06:05:41.508Z,0.60
2023-01-17T06:08:09.297Z,0.53
2023-01-17T06:10:38.654Z,0.50
2023-01-17T06:13:08.152Z,0.30
2023-01-17T06:15:36.323Z,0.40
2023-01-17T06:18:08.342Z,0.63
2023-01-17T06:20:36.140Z,0.57
2023-01-17T06:23:05.031Z,0.50
2023-01-17T06:25:39.523Z,0.50
2023-01-17T06:28:07.463Z,0.30
2023-01-17T06:30:35.689Z,0.40
2023-01-17T06:33:03.954Z,0.50
2023-01-17T06:35:31.893Z,0.60
2023-01-17T06:38:00.474Z,0.50
2023-01-17T06:40:30.172Z,0.50
2023-01-17T06:43:02.549Z,0.37
2023-01-17T06:45:30.891Z,0.47
2023-01-17T06:47:59.763Z,0.60
2023-01-17T06:50:28.310Z,0.33
2023-01-17T06:52:57.783Z,0.60
2023-01-17T06:55:28.639Z,0.50
2023-01-17T06:57:56.805Z,0.40
2023-01-17T07:00:26.503Z,0.40
2023-01-17T07:02:54.218Z,0.40
2023-01-17T07:05:22.371Z,0.50
2023-01-17T07:07:50.184Z,0.40
2023-01-17T07:10:18.178Z,0.50
2023-01-17T07:12:45.912Z,0.40
2023-01-17T07:15:14.272Z,0.53
2023-01-17T07:17:43.410Z,0.20
2023-01-17T07:20:12.014Z,0.50
2023-01-17T07:22:39.772Z,0.80
2023-01-17T07:25:08.396Z,0.50
2023-01-17T07:27:36.222Z,0.77
2023-01-17T07:30:04.198Z,0.80
2023-01-17T07:32:31.954Z,0.77
2023-01-17T07:35:01.157Z,0.50
2023-01-17T07:37:28.948Z,0.50
2023-01-17T07:39:56.709Z,0.50
2023-01-17T07:42:24.723Z,0.90
2023-01-17T07:44:52.685Z,0.67
2023-01-17T07:47:21.037Z,0.63
2023-01-17T07:49:48.847Z,0.57
2023-01-17T07:52:18.353Z,0.60
2023-01-17T07:54:46.137Z,1.00
2023-01-17T07:57:14.008Z,0.93
2023-01-17T07:59:41.743Z,0.60
2023-01-17T08:02:17.597Z,0.70
2023-01-17T08:04:45.635Z,0.70
2023-01-17T08:07:13.972Z,0.70
2023-01-17T08:09:44.151Z,0.60
2023-01-17T08:12:12.038Z,0.80
2023-01-17T08:14:39.856Z,0.80
2023-01-17T08:17:07.803Z,0.63
2023-01-17T08:19:35.637Z,0.50
2023-01-17T08:22:03.465Z,0.60
2023-01-17T08:24:31.328Z,0.70
2023-01-17T08:27:00.397Z,0.70
2023-01-17T08:29:28.102Z,1.00
2023-01-17T08:31:56.354Z,0.70
2023-01-17T08:34:24.394Z,0.80
2023-01-17T08:36:53.877Z,0.77
2023-01-17T08:39:21.823Z,0.87
2023-01-17T08:41:49.577Z,0.67
2023-01-17T08:44:20.070Z,0.50
2023-01-17T08:46:47.811Z,0.50
2023-01-17T08:49:15.626Z,0.70
2023-01-17T08:51:43.510Z,0.60
2023-01-17T08:54:13.297Z,0.60
2023-01-17T08:56:42.756Z,0.40
2023-01-17T08:59:12.343Z,0.70
2023-01-17T09:01:41.990Z,0.50
2023-01-17T09:04:10.570Z,0.70
2023-01-17T09:06:39.292Z,0.67
2023-01-17T09:09:08.409Z,0.70
2023-01-17T09:11:36.281Z,0.77
2023-01-17T09:14:04.207Z,0.50
2023-01-17T09:16:32.699Z,0.73
2023-01-17T09:19:01.970Z,0.60
2023-01-17T09:21:29.806Z,0.50
2023-01-17T09:23:57.559Z,0.47
2023-01-17T09:26:27.739Z,0.50
2023-01-17T09:28:56.195Z,0.50
2023-01-17T09:31:27.033Z,0.47
2023-01-17T09:33:56.665Z,0.33
2023-01-17T09:36:28.785Z,0.90
2023-01-17T09:38:57.817Z,0.60
2023-01-17T09:41:29.688Z,0.53
2023-01-17T09:44:02.802Z,0.50
2023-01-17T09:46:33.263Z,0.40
2023-01-17T09:49:08.186Z,0.40
2023-01-17T09:51:38.267Z,0.50
2023-01-17T09:54:06.558Z,0.50
2023-01-17T09:56:38.555Z,0.40
2023-01-17T09:59:20.078Z,0.73
2023-01-17T10:01:56.257Z,0.33
2023-01-17T10:04:43.476Z,0.50
2023-01-17T10:07:23.925Z,0.30
2023-01-17T10:10:19.997Z,0.47
2023-01-17T10:12:54.591Z,0.50
2023-01-17T10:15:39.623Z,0.80
2023-01-17T10:18:30.061Z,0.93
2023-01-17T10:21:05.544Z,0.50
2023-01-17T10:24:06.524Z,0.60
2023-01-17T10:26:36.603Z,0.60
2023-01-17T10:29:11.414Z,0.70
2023-01-17T10:31:44.499Z,0.80
2023-01-17T10:34:18.134Z,0.83
2023-01-17T10:36:49.606Z,0.77
2023-01-17T10:39:22.443Z,0.63
2023-01-17T10:41:56.258Z,0.30
2023-01-17T10:44:30.183Z,0.30
2023-01-17T10:47:04.865Z,0.50
2023-01-17T10:49:32.858Z,0.60
2023-01-17T10:52:17.094Z,0.50
2023-01-17T10:55:03.928Z,0.40
2023-01-17T10:57:38.476Z,0.33
2023-01-17T11:00:32.100Z,0.37
2023-01-17T11:03:01.432Z,0.60
2023-01-17T11:05:31.380Z,0.53
2023-01-17T11:08:01.091Z,0.30
2023-01-17T11:10:42.742Z,0.40
2023-01-17T11:13:30.785Z,0.40
2023-01-17T11:16:02.350Z,0.60
2023-01-17T11:18:32.363Z,0.50
2023-01-17T11:21:15.621Z,0.60
2023-01-17T11:23:45.275Z,0.50
2023-01-17T11:26:25.270Z,0.30
2023-01-17T11:28:53.109Z,0.47
2023-01-17T11:31:27.615Z,0.33
2023-01-17T11:34:15.056Z,0.60
2023-01-17T11:36:43.143Z,0.57
2023-01-17T11:39:27.694Z,0.40
2023-01-17T11:41:57.012Z,0.60
2023-01-17T11:44:27.634Z,0.60
2023-01-17T11:47:15.864Z,0.40
2023-01-17T11:49:45.200Z,0.60
2023-01-17T11:52:22.339Z,0.60
2023-01-17T11:54:51.386Z,0.50
2023-01-17T11:57:23.743Z,0.50
2023-01-17T11:59:55.216Z,0.67
2023-01-17T12:02:39.599Z,0.43
2023-01-17T12:05:27.848Z,0.47
2023-01-17T12:08:04.596Z,0.50
2023-01-17T12:10:38.831Z,0.40
2023-01-17T12:13:34.527Z,0.37
2023-01-17T12:16:29.484Z,0.53
2023-01-17T12:19:07.189Z,0.30
2023-01-17T12:21:42.680Z,0.40
2023-01-17T12:24:51.373Z,0.40
2023-01-17T12:27:25.753Z,0.40
2023-01-17T12:30:11.311Z,0.10
2023-01-17T12:32:54.287Z,0.20
2023-01-17T12:35:26.994Z,0.30
2023-01-17T12:38:05.224Z,0.20
2023-01-17T12:40:39.491Z,0.23
2023-01-17T12:43:15.427Z,0.17
2023-01-17T12:45:46.955Z,0.30
2023-01-17T12:48:17.915Z,0.40
2023-01-17T12:50:53.618Z,0.30
2023-01-17T12:53:30.639Z,0.20
2023-01-17T12:56:03.069Z,0.30
2023-01-17T12:58:38.796Z,0.20
2023-01-17T13:01:15.529Z,0.30
2023-01-17T13:03:57.656Z,0.30
2023-01-17T13:06:31.213Z,0.47
2023-01-17T13:09:03.396Z,0.20
2023-01-17T13:11:39.173Z,0.23
2023-01-17T13:14:10.088Z,0.20
2023-01-17T13:16:44.213Z,0.30
2023-01-17T13:19:19.012Z,0.20
2023-01-17T13:21:49.024Z,0.30
2023-01-17T13:24:23.804Z,0.37
2023-01-17T13:27:05.960Z,0.30
2023-01-17T13:29:41.464Z,0.40
2023-01-17T13:32:27.599Z,0.40
2023-01-17T13:35:15.264Z,0.30
2023-01-17T13:38:10.061Z,0.50
2023-01-17T13:40:50.062Z,0.33
2023-01-17T13:43:22.476Z,0.40
2023-01-17T13:45:54.897Z,0.30
2023-01-17T13:48:32.128Z,0.30
2023-01-17T13:51:02.276Z,0.57
2023-01-17T13:53:59.712Z,0.37
2023-01-17T13:56:36.118Z,0.40
2023-01-17T13:59:30.716Z,0.40
2023-01-17T14:01:58.788Z,0.40
2023-01-17T14:05:06.398Z,0.50
2023-01-17T14:07:36.223Z,0.30
2023-01-17T14:10:22.236Z,0.30
2023-01-17T14:12:51.211Z,0.40
2023-01-17T14:15:23.587Z,0.40
2023-01-17T14:17:58.514Z,0.40
2023-01-17T14:20:47.590Z,0.40
2023-01-17T14:23:24.518Z,0.20
2023-01-17T14:25:53.673Z,0.33
2023-01-17T14:28:25.641Z,0.40
2023-01-17T14:30:56.149Z,0.33
2023-01-17T14:33:29.721Z,0.50
2023-01-17T14:36:01.889Z,0.40
2023-01-17T14:38:32.096Z,0.20
2023-01-17T14:41:03.607Z,0.47
2023-01-17T14:43:35.279Z,0.50
2023-01-17T14:46:06.720Z,0.40
2023-01-17T14:48:35.191Z,0.23
2023-01-17T14:51:14.267Z,0.33
2023-01-17T14:53:53.997Z,0.40
2023-01-17T14:56:21.751Z,0.20
2023-01-17T14:58:51.719Z,0.30
2023-01-17T15:01:20.914Z,0.30
2023-01-17T15:03:51.187Z,0.47
2023-01-17T15:06:23.047Z,0.30
2023-01-17T15:08:54.180Z,0.40
2023-01-17T15:11:25.527Z,0.10
2023-01-17T15:13:57.456Z,0.40
2023-01-17T15:16:27.026Z,0.37
2023-01-17T15:18:57.154Z,0.40
2023-01-17T15:21:30.491Z,0.30
2023-01-17T15:24:01.435Z,0.50
2023-01-17T15:26:33.142Z,0.40
2023-01-17T15:29:05.405Z,0.33
2023-01-17T15:31:42.856Z,0.60
2023-01-17T15:34:27.392Z,0.47
2023-01-17T15:36:58.537Z,0.40
2023-01-17T15:39:30.102Z,0.40
2023-01-17T15:42:00.094Z,0.30
2023-01-17T15:44:46.806Z,0.43
2023-01-17T15:47:30.826Z,0.50
2023-01-17T15:49:59.619Z,0.50
2023-01-17T15:52:29.209Z,0.40
2023-01-17T15:55:00.345Z,0.30
2023-01-17T15:57:30.340Z,0.63
2023-01-17T16:00:05.676Z,0.50
2023-01-17T16:02:42.769Z,0.30
2023-01-17T16:05:38.729Z,0.63
2023-01-17T16:08:27.622Z,0.50
2023-01-17T16:10:58.540Z,0.40
2023-01-17T16:13:26.325Z,0.33
2023-01-17T16:15:54.144Z,0.40
2023-01-17T16:18:25.724Z,0.43
2023-01-17T16:20:59.966Z,0.33
2023-01-17T16:23:29.571Z,0.37
2023-01-17T16:25:57.449Z,0.40
2023-01-17T16:28:25.222Z,0.40
2023-01-17T16:30:54.460Z,0.70
2023-01-17T16:33:22.342Z,0.30
2023-01-17T16:35:51.253Z,0.57
2023-01-17T16:38:19.785Z,0.40
2023-01-17T16:40:49.531Z,0.50
2023-01-17T16:43:21.044Z,0.50
2023-01-17T16:45:52.929Z,0.60
2023-01-17T16:48:21.637Z,0.60
2023-01-17T16:50:52.851Z,0.50
2023-01-17T16:53:24.744Z,0.50
2023-01-17T16:55:56.711Z,0.63
2023-01-17T16:58:24.785Z,0.60
2023-01-17T17:00:55.228Z,0.50
2023-01-17T17:03:24.381Z,0.47
2023-01-17T17:05:59.662Z,0.53
2023-01-17T17:08:29.315Z,1.00
2023-01-17T17:11:08.284Z,0.60
2023-01-17T17:13:36.729Z,0.80
2023-01-17T17:16:10.696Z,0.83
2023-01-17T17:18:38.995Z,1.23
2023-01-17T17:21:06.940Z,1.00
2023-01-17T17:23:35.132Z,1.20
2023-01-17T17:26:04.567Z,1.43
2023-01-17T17:28:32.349Z,1.50
2023-01-17T17:31:08.366Z,1.53
2023-01-17T17:33:36.896Z,2.20
2023-01-17T17:36:06.858Z,1.80
2023-01-17T17:38:36.093Z,1.80
2023-01-17T17:41:10.441Z,1.60
2023-01-17T17:43:40.495Z,1.57
2023-01-17T17:46:09.092Z,1.60
2023-01-17T17:48:37.042Z,1.57
2023-01-17T17:51:05.899Z,1.30
2023-01-17T17:53:34.072Z,1.40
2023-01-17T17:56:06.690Z,1.27
2023-01-17T17:58:36.764Z,1.60
2023-01-17T18:01:06.275Z,1.30
2023-01-17T18:03:34.436Z,1.27
2023-01-17T18:06:04.041Z,1.27
2023-01-17T18:08:32.728Z,1.30
2023-01-17T18:11:04.657Z,1.20
2023-01-17T18:13:33.236Z,1.07
2023-01-17T18:16:07.789Z,1.13
2023-01-17T18:18:36.791Z,1.10
2023-01-17T18:21:09.791Z,0.80
2023-01-17T18:23:39.489Z,0.97
2023-01-17T18:26:07.522Z,1.03
2023-01-17T18:28:35.322Z,1.17
2023-01-17T18:31:08.396Z,1.30
2023-01-17T18:33:38.065Z,1.10
2023-01-17T18:36:07.047Z,0.80
2023-01-17T18:38:39.076Z,1.37
2023-01-17T18:41:08.121Z,1.60
2023-01-17T18:43:36.673Z,1.40
2023-01-17T18:46:04.908Z,0.93
2023-01-17T18:48:34.674Z,1.30
2023-01-17T18:51:04.748Z,1.10
2023-01-17T18:53:33.921Z,1.30
2023-01-17T18:56:03.585Z,1.27
2023-01-17T18:58:32.268Z,1.53
2023-01-17T19:01:08.647Z,1.27
2023-01-17T19:03:39.045Z,1.30
2023-01-17T19:06:10.695Z,1.30
2023-01-17T19:08:38.609Z,1.20
2023-01-17T19:11:07.087Z,0.97
2023-01-17T19:13:37.194Z,1.30
2023-01-17T19:16:07.686Z,1.10
2023-01-17T19:18:37.109Z,0.97
2023-01-17T19:21:06.552Z,1.10
2023-01-17T19:23:35.779Z,0.90
2023-01-17T19:26:04.194Z,0.90
2023-01-17T19:28:35.435Z,1.07
2023-01-17T19:31:05.149Z,0.97
2023-01-17T19:33:34.543Z,1.00
2023-01-17T19:36:05.950Z,1.00
2023-01-17T19:38:35.646Z,1.27
2023-01-17T19:41:09.654Z,1.23
2023-01-17T19:43:37.690Z,1.10
2023-01-17T19:46:08.082Z,1.00
2023-01-17T19:48:37.031Z,1.10
2023-01-17T19:51:08.207Z,1.00
2023-01-17T19:53:37.091Z,0.80
2023-01-17T19:56:09.604Z,1.00
2023-01-17T19:58:38.341Z,1.20
2023-01-17T20:01:07.828Z,0.90
2023-01-17T20:03:36.060Z,1.10
2023-01-17T20:06:04.455Z,0.97
2023-01-17T20:08:34.010Z,0.90
2023-01-17T20:11:03.062Z,1.00
2023-01-17T20:13:31.041Z,0.83
2023-01-17T20:16:03.142Z,1.00
2023-01-17T20:18:31.086Z,0.90
2023-01-17T20:21:03.734Z,1.00
2023-01-17T20:23:36.436Z,1.10
2023-01-17T20:26:04.635Z,1.10
2023-01-17T20:28:33.684Z,1.30
2023-01-17T20:31:07.389Z,1.10
2023-01-17T20:33:36.277Z,1.10
2023-01-17T20:36:10.540Z,1.20
2023-01-17T20:38:46.438Z,1.13
2023-01-17T20:41:15.873Z,1.23
2023-01-17T20:43:44.560Z,1.30
2023-01-17T20:46:13.347Z,1.20
2023-01-17T20:48:45.525Z,1.50
2023-01-17T20:51:14.314Z,1.30
2023-01-17T20:53:45.088Z,1.80
2023-01-17T20:56:14.379Z,1.50
2023-01-17T20:58:43.120Z,1.63
2023-01-17T21:01:12.349Z,1.77
2023-01-17T21:03:40.832Z,1.60
2023-01-17T21:06:11.326Z,1.50
2023-01-17T21:08:40.930Z,1.60
2023-01-17T21:11:12.538Z,1.60
2023-01-17T21:13:41.041Z,1.60
2023-01-17T21:16:11.783Z,1.50
2023-01-17T21:18:39.670Z,1.73
2023-01-17T21:21:09.113Z,1.60
2023-01-17T21:23:37.749Z,1.60
2023-01-17T21:26:06.281Z,1.70
2023-01-17T21:28:37.978Z,1.70
2023-01-17T21:31:18.024Z,1.70
2023-01-17T21:33:45.988Z,1.57
2023-01-17T21:36:14.288Z,1.23
2023-01-17T21:38:42.096Z,1.47
2023-01-17T21:41:09.983Z,1.87
2023-01-17T21:43:39.231Z,1.97
2023-01-17T21:46:07.383Z,1.40
2023-01-17T21:48:35.133Z,1.60
2023-01-17T21:51:06.770Z,1.60
2023-01-17T21:53:35.785Z,1.63
2023-01-17T21:56:22.416Z,1.70
2023-01-17T21:58:54.011Z,1.67
2023-01-17T22:01:23.861Z,1.80
2023-01-17T22:03:53.275Z,1.90
2023-01-17T22:06:22.708Z,1.77
2023-01-17T22:08:50.552Z,1.30
2023-01-17T22:11:20.097Z,1.63
2023-01-17T22:13:48.065Z,2.10
2023-01-17T22:16:19.909Z,1.83
2023-01-17T22:18:48.368Z,2.13
2023-01-17T22:21:18.161Z,2.10
2023-01-17T22:23:46.911Z,1.47
2023-01-17T22:26:15.156Z,1.37
2023-01-17T22:28:43.886Z,1.40
2023-01-17T22:31:13.356Z,1.10
2023-01-17T22:33:44.612Z,1.60
2023-01-17T22:36:14.660Z,1.70
2023-01-17T22:38:43.577Z,1.40
2023-01-17T22:41:15.977Z,1.20
2023-01-17T22:43:46.746Z,1.60
2023-01-17T22:46:16.546Z,1.70
2023-01-17T22:48:45.980Z,1.63
2023-01-17T22:51:15.538Z,1.37
2023-01-17T22:53:44.591Z,1.63
2023-01-17T22:56:15.868Z,1.10
2023-01-17T22:58:45.143Z,1.67
2023-01-17T23:01:14.413Z,1.57
2023-01-17T23:03:42.454Z,1.33
2023-01-17T23:06:14.756Z,1.40
2023-01-17T23:08:44.424Z,1.63
2023-01-17T23:11:41.040Z,1.33
2023-01-17T23:14:12.811Z,1.43
2023-01-17T23:16:59.882Z,1.80
2023-01-17T23:19:30.267Z,1.43
2023-01-17T23:22:18.594Z,1.90
2023-01-17T23:24:49.430Z,1.57
2023-01-17T23:27:37.483Z,1.40
2023-01-17T23:30:07.378Z,1.70
2023-01-17T23:32:35.134Z,1.40
2023-01-17T23:35:02.900Z,1.50
2023-01-17T23:37:46.240Z,1.63
2023-01-17T23:40:14.107Z,1.50
2023-01-17T23:42:59.741Z,1.47
2023-01-17T23:45:27.642Z,1.47
2023-01-17T23:47:55.432Z,1.43
2023-01-17T23:50:23.203Z,1.23
2023-01-17T23:52:52.284Z,1.43
2023-01-17T23:55:20.436Z,1.57
2023-01-17T23:57:50.004Z,1.50
